Kelly USA, Texas
Current Conditions -  °F | °C
As of 9:58 AM on Wednesday 22 Oct 2014 (Local Time) from KSKF Reporting Station
Clear Clear  
Wind Chill: 73°   Ceiling: Unl
Heat Index: 73°   Visibility: 10mi
Dew Point: 57°   Wind: 12mph
Humidity: 56%   Direction: 80°E
Pressure: 30.1"   Gusts: NA
Location:  29.3853°N, 98.6099°W
Report Text: KSKF 221458Z AUTO 08010KT 10SM CLR 23/14 A3010 RMK AO2 SLP187 T02280137 52018 $
Loading
Personal Weather Stations






























Interactive Weather Map
Tropical Storm Tracking
New forecast layout! Learn more

10-Day Weather Forecast

Advertisements
Track Severe Weather on mobile